createdAt,value
2023-03-28T00:01:12.294Z,58.19
2023-03-28T00:02:16.786Z,58.02
2023-03-28T00:03:30.180Z,57.76
2023-03-28T00:04:34.904Z,57.70
2023-03-28T00:05:45.158Z,57.97
2023-03-28T00:06:52.938Z,58.50
2023-03-28T00:07:57.453Z,58.46
2023-03-28T00:09:01.703Z,58.36
2023-03-28T00:10:11.103Z,58.38
2023-03-28T00:11:20.514Z,57.88
2023-03-28T00:12:26.625Z,58.09
2023-03-28T00:13:32.877Z,58.10
2023-03-28T00:14:38.374Z,57.94
2023-03-28T00:15:43.493Z,58.02
2023-03-28T00:16:48.397Z,57.79
2023-03-28T00:17:55.182Z,57.99
2023-03-28T00:19:01.820Z,58.16
2023-03-28T00:20:10.951Z,57.89
2023-03-28T00:21:29.590Z,57.81
2023-03-28T00:22:38.438Z,58.22
2023-03-28T00:23:43.943Z,58.08
2023-03-28T00:24:51.482Z,58.23
2023-03-28T00:25:56.716Z,58.10
2023-03-28T00:27:02.035Z,58.00
2023-03-28T00:28:12.085Z,58.23
2023-03-28T00:29:23.735Z,58.20
2023-03-28T00:30:31.454Z,58.01
2023-03-28T00:31:48.399Z,58.16
2023-03-28T00:33:16.772Z,58.14
2023-03-28T00:34:23.161Z,58.56
2023-03-28T00:35:31.055Z,58.15
2023-03-28T00:36:39.468Z,57.95
2023-03-28T00:37:45.943Z,58.32
2023-03-28T00:38:52.504Z,58.49
2023-03-28T00:40:02.022Z,58.31
2023-03-28T00:41:16.244Z,58.65
2023-03-28T00:42:27.869Z,58.40
2023-03-28T00:43:43.236Z,58.21
2023-03-28T00:44:49.191Z,58.26
2023-03-28T00:46:02.662Z,58.32
2023-03-28T00:47:28.626Z,58.83
2023-03-28T00:48:33.865Z,58.67
2023-03-28T00:49:39.645Z,58.64
2023-03-28T00:50:49.996Z,58.83
2023-03-28T00:52:01.723Z,59.22
2023-03-28T00:53:23.589Z,58.72
2023-03-28T00:54:40.729Z,58.73
2023-03-28T00:55:57.808Z,58.98
2023-03-28T00:57:04.107Z,59.22
2023-03-28T00:58:25.823Z,59.16
2023-03-28T00:59:38.092Z,59.04
2023-03-28T01:00:42.384Z,59.44
2023-03-28T01:01:47.878Z,59.91
2023-03-28T01:02:58.599Z,60.04
2023-03-28T01:04:04.098Z,60.62
2023-03-28T01:05:14.390Z,60.02
2023-03-28T01:06:22.406Z,60.41
2023-03-28T01:07:33.834Z,60.20
2023-03-28T01:08:43.103Z,60.28
2023-03-28T01:09:52.980Z,60.44
2023-03-28T01:11:14.444Z,60.52
2023-03-28T01:12:22.106Z,60.85
2023-03-28T01:13:34.417Z,60.87
2023-03-28T01:14:40.342Z,60.82
2023-03-28T01:15:50.093Z,60.98
2023-03-28T01:16:59.641Z,60.71
2023-03-28T01:18:12.808Z,60.69
2023-03-28T01:20:14.924Z,60.92
2023-03-28T01:22:16.493Z,60.78
2023-03-28T01:23:37.671Z,60.56
2023-03-28T01:25:53.985Z,60.47
2023-03-28T01:27:47.366Z,60.60
2023-03-28T01:29:27.587Z,61.10
2023-03-28T01:31:13.420Z,61.07
2023-03-28T01:32:34.078Z,61.48
2023-03-28T01:34:06.645Z,61.30
2023-03-28T01:36:11.030Z,61.18
2023-03-28T01:38:16.262Z,61.11
2023-03-28T01:40:02.090Z,60.74
2023-03-28T01:41:41.578Z,60.92
2023-03-28T01:42:57.391Z,61.10
2023-03-28T01:44:32.532Z,60.83
2023-03-28T01:46:12.058Z,61.06
2023-03-28T01:47:39.694Z,60.58
2023-03-28T01:49:32.070Z,60.57
2023-03-28T01:50:51.581Z,60.69
2023-03-28T01:52:38.325Z,60.62
2023-03-28T01:54:03.357Z,60.49
2023-03-28T01:55:41.886Z,61.15
2023-03-28T01:57:17.827Z,61.24
2023-03-28T01:58:40.734Z,61.45
2023-03-28T02:00:13.301Z,61.61
2023-03-28T02:01:25.141Z,61.50
2023-03-28T02:02:42.728Z,62.19
2023-03-28T02:03:54.716Z,62.58
2023-03-28T02:05:04.608Z,62.57
2023-03-28T02:06:17.524Z,62.49
2023-03-28T02:07:27.369Z,62.63
2023-03-28T02:08:40.057Z,62.30
2023-03-28T02:09:51.699Z,62.59
2023-03-28T02:10:59.252Z,62.67
2023-03-28T02:12:36.895Z,62.85
2023-03-28T02:13:56.162Z,62.91
2023-03-28T02:15:14.304Z,62.73
2023-03-28T02:16:23.457Z,62.61
2023-03-28T02:17:31.020Z,62.65
2023-03-28T02:18:42.555Z,62.30
2023-03-28T02:19:55.678Z,62.43
2023-03-28T02:21:20.828Z,62.23
2023-03-28T02:22:49.700Z,62.00
2023-03-28T02:23:56.571Z,61.85
2023-03-28T02:25:03.233Z,61.84
2023-03-28T02:26:13.460Z,61.52
2023-03-28T02:27:23.520Z,61.44
2023-03-28T02:28:32.119Z,61.41
2023-03-28T02:29:39.412Z,60.97
2023-03-28T02:30:45.888Z,61.18
2023-03-28T02:31:50.945Z,61.00
2023-03-28T02:33:15.093Z,61.06
2023-03-28T02:34:20.548Z,61.16
2023-03-28T02:35:36.142Z,60.73
2023-03-28T02:37:20.081Z,60.85
2023-03-28T02:38:56.802Z,60.90
2023-03-28T02:40:14.089Z,60.70
2023-03-28T02:42:02.272Z,60.62
2023-03-28T02:43:23.871Z,61.44
2023-03-28T02:45:25.023Z,61.82
2023-03-28T02:47:01.079Z,61.88
2023-03-28T02:48:47.877Z,62.45
2023-03-28T02:50:19.108Z,62.28
2023-03-28T02:52:01.021Z,62.25
2023-03-28T02:53:39.190Z,62.31
2023-03-28T02:55:22.868Z,62.40
2023-03-28T02:57:16.820Z,62.60
2023-03-28T02:58:37.773Z,63.47
2023-03-28T03:00:09.783Z,62.88
2023-03-28T03:01:14.949Z,63.24
2023-03-28T03:02:22.551Z,63.06
2023-03-28T03:03:26.694Z,62.90
2023-03-28T03:04:31.152Z,62.52
2023-03-28T03:05:35.804Z,62.58
2023-03-28T03:06:40.180Z,63.02
2023-03-28T03:07:45.147Z,62.97
2023-03-28T03:08:49.423Z,63.52
2023-03-28T03:09:54.242Z,63.61
2023-03-28T03:10:58.924Z,64.02
2023-03-28T03:12:03.436Z,64.16
2023-03-28T03:13:17.340Z,63.98
2023-03-28T03:14:23.570Z,64.66
2023-03-28T03:15:31.052Z,64.57
2023-03-28T03:16:38.861Z,64.51
2023-03-28T03:17:47.361Z,64.35
2023-03-28T03:18:52.856Z,64.38
2023-03-28T03:19:57.749Z,64.43
2023-03-28T03:21:06.890Z,64.69
2023-03-28T03:22:21.029Z,64.78
2023-03-28T03:23:25.838Z,65.08
2023-03-28T03:24:30.036Z,64.97
2023-03-28T03:25:36.323Z,64.84
2023-03-28T03:26:42.152Z,65.09
2023-03-28T03:27:49.097Z,64.91
2023-03-28T03:28:54.301Z,65.75
2023-03-28T03:29:59.622Z,65.26
2023-03-28T03:31:12.593Z,66.00
2023-03-28T03:32:18.508Z,65.77
2023-03-28T03:33:30.538Z,65.74
2023-03-28T03:34:37.038Z,65.34
2023-03-28T03:35:42.625Z,65.39
2023-03-28T03:36:53.304Z,66.23
2023-03-28T03:37:58.490Z,66.18
2023-03-28T03:39:07.634Z,66.39
2023-03-28T03:40:25.693Z,66.71
2023-03-28T03:41:32.441Z,67.05
2023-03-28T03:42:38.513Z,66.51
2023-03-28T03:43:52.082Z,67.10
2023-03-28T03:44:56.812Z,67.11
2023-03-28T03:46:03.135Z,67.80
2023-03-28T03:47:26.434Z,68.18
2023-03-28T03:48:33.269Z,68.09
2023-03-28T03:49:38.677Z,67.72
2023-03-28T03:50:44.246Z,68.34
2023-03-28T03:51:51.157Z,68.02
2023-03-28T03:52:58.302Z,67.47
2023-03-28T03:54:10.801Z,67.70
2023-03-28T03:55:17.349Z,68.38
2023-03-28T03:56:23.127Z,67.81
2023-03-28T03:57:28.547Z,68.30
2023-03-28T03:58:33.951Z,68.24
2023-03-28T03:59:38.460Z,67.56
2023-03-28T04:00:45.031Z,67.34
2023-03-28T04:01:50.182Z,67.66
2023-03-28T04:02:54.520Z,67.58
2023-03-28T04:03:59.416Z,67.45
2023-03-28T04:05:14.189Z,67.81
2023-03-28T04:06:21.071Z,68.33
2023-03-28T04:07:26.020Z,68.27
2023-03-28T04:08:30.029Z,68.21
2023-03-28T04:09:35.834Z,68.78
2023-03-28T04:10:41.520Z,68.88
2023-03-28T04:11:46.644Z,69.33
2023-03-28T04:12:56.590Z,69.01
2023-03-28T04:14:02.084Z,69.29
2023-03-28T04:15:14.437Z,68.84
2023-03-28T04:16:21.222Z,68.75
2023-03-28T04:17:30.588Z,68.98
2023-03-28T04:18:36.334Z,69.32
2023-03-28T04:19:41.308Z,69.78
2023-03-28T04:20:55.402Z,69.65
2023-03-28T04:22:00.157Z,70.05
2023-03-28T04:23:10.201Z,69.34
2023-03-28T04:24:16.644Z,69.91
2023-03-28T04:25:21.823Z,70.17
2023-03-28T04:26:29.055Z,70.00
2023-03-28T04:27:34.594Z,70.09
2023-03-28T04:28:39.676Z,70.29
2023-03-28T04:29:43.783Z,70.73
2023-03-28T04:30:47.839Z,70.75
2023-03-28T04:31:56.611Z,71.53
2023-03-28T04:33:01.905Z,70.83
2023-03-28T04:34:13.920Z,71.25
2023-03-28T04:35:18.204Z,71.44
2023-03-28T04:36:26.405Z,72.04
2023-03-28T04:37:30.765Z,71.90
2023-03-28T04:38:37.937Z,72.09
2023-03-28T04:39:45.301Z,72.17
2023-03-28T04:40:50.217Z,71.99
2023-03-28T04:41:55.902Z,72.57
2023-03-28T04:43:00.353Z,73.21
2023-03-28T04:44:05.037Z,72.89
2023-03-28T04:45:18.003Z,73.00
2023-03-28T04:46:23.427Z,72.93
2023-03-28T04:47:28.497Z,72.94
2023-03-28T04:48:33.651Z,73.32
2023-03-28T08:05:43.197Z,64.49
2023-03-28T08:06:48.085Z,64.93
2023-03-28T08:07:54.975Z,65.85
2023-03-28T08:08:59.136Z,66.79
2023-03-28T08:10:06.205Z,67.46
2023-03-28T08:11:21.975Z,66.85
2023-03-28T08:12:27.661Z,67.57
2023-03-28T08:13:32.151Z,67.45
2023-03-28T08:14:36.784Z,67.52
2023-03-28T08:15:57.139Z,67.42
2023-03-28T08:17:01.791Z,67.71
2023-03-28T08:18:28.738Z,68.18
2023-03-28T08:19:33.018Z,67.54
2023-03-28T08:20:41.515Z,67.24
2023-03-28T08:21:48.699Z,67.75
2023-03-28T08:22:53.518Z,68.36
2023-03-28T08:24:00.771Z,68.32
2023-03-28T08:25:06.780Z,69.66
2023-03-28T08:26:12.097Z,73.59
2023-03-28T08:27:17.753Z,76.35
2023-03-28T08:28:22.916Z,78.38
2023-03-28T08:29:27.774Z,79.36
2023-03-28T08:30:35.170Z,79.92
2023-03-28T08:31:39.917Z,80.34
2023-03-28T08:32:52.345Z,80.27
2023-03-28T08:34:00.219Z,81.12
2023-03-28T08:35:07.557Z,82.20
2023-03-28T08:36:15.762Z,81.50
2023-03-28T08:37:25.738Z,81.98
2023-03-28T08:38:31.661Z,81.70
2023-03-28T08:39:38.089Z,80.91
2023-03-28T08:40:55.219Z,79.93
2023-03-28T08:42:27.319Z,78.72
2023-03-28T08:43:39.924Z,79.01
2023-03-28T08:45:08.969Z,78.87
2023-03-28T08:46:24.360Z,78.97
2023-03-28T08:47:52.533Z,78.61
2023-03-28T08:49:00.688Z,79.03
2023-03-28T08:50:25.309Z,77.22
2023-03-28T08:51:41.257Z,77.12
2023-03-28T08:52:49.892Z,78.63
2023-03-28T08:54:39.761Z,77.08
2023-03-28T08:55:44.042Z,76.37
2023-03-28T08:56:56.459Z,75.72
2023-03-28T08:58:04.273Z,75.46
2023-03-28T08:59:19.356Z,75.72
2023-03-28T09:00:31.627Z,76.27
2023-03-28T09:01:37.605Z,75.25
2023-03-28T09:02:43.979Z,75.30
2023-03-28T09:03:50.727Z,76.83
2023-03-28T09:05:12.018Z,76.68
2023-03-28T09:06:38.536Z,74.42
2023-03-28T09:07:59.961Z,74.38
2023-03-28T09:09:41.447Z,72.69
2023-03-28T09:11:00.785Z,70.98
2023-03-28T09:12:31.201Z,66.70
2023-03-28T09:14:12.820Z,63.97
2023-03-28T09:15:32.460Z,62.55
2023-03-28T09:16:59.809Z,61.50
2023-03-28T09:18:10.288Z,61.51
2023-03-28T09:20:11.703Z,60.75
2023-03-28T09:21:32.244Z,60.16
2023-03-28T09:23:35.272Z,60.16
2023-03-28T09:25:16.403Z,59.98
2023-03-28T09:26:42.048Z,60.53
2023-03-28T09:28:14.772Z,60.80
2023-03-28T09:29:27.916Z,59.61
2023-03-28T09:30:46.561Z,58.49
2023-03-28T09:32:11.140Z,58.03
2023-03-28T09:33:22.060Z,57.53
2023-03-28T09:34:45.986Z,58.19
2023-03-28T09:35:59.125Z,58.47
2023-03-28T09:37:35.667Z,58.57
2023-03-28T09:38:54.063Z,58.69
2023-03-28T09:40:24.571Z,58.59
2023-03-28T09:42:01.241Z,57.38
2023-03-28T09:43:48.854Z,55.91
2023-03-28T09:45:38.788Z,55.33
2023-03-28T09:46:49.354Z,55.72
2023-03-28T09:47:55.557Z,55.85
2023-03-28T09:49:01.489Z,55.53
2023-03-28T09:50:15.701Z,55.14
2023-03-28T09:51:24.391Z,55.05
2023-03-28T09:52:31.214Z,54.68
2023-03-28T09:53:38.864Z,55.32
2023-03-28T09:54:46.690Z,55.02
2023-03-28T09:56:03.340Z,55.56
2023-03-28T09:57:10.011Z,54.83
2023-03-28T09:58:30.043Z,54.88
2023-03-28T09:59:37.068Z,55.21
2023-03-28T10:00:50.982Z,54.30
2023-03-28T10:01:57.816Z,52.92
2023-03-28T10:03:02.551Z,52.92
2023-03-28T10:04:30.681Z,52.25
2023-03-28T10:05:41.711Z,50.79
2023-03-28T10:06:49.429Z,49.89
2023-03-28T10:08:02.862Z,50.57
2023-03-28T10:09:24.591Z,50.95
2023-03-28T10:10:30.086Z,51.05
2023-03-28T10:11:49.572Z,50.68
2023-03-28T10:13:04.248Z,50.69
2023-03-28T10:14:38.857Z,50.22
2023-03-28T10:15:48.438Z,50.65
2023-03-28T10:16:52.858Z,50.86
2023-03-28T10:18:00.771Z,51.33
2023-03-28T10:19:05.400Z,48.95
2023-03-28T10:20:22.272Z,48.51
2023-03-28T10:21:30.473Z,47.29
2023-03-28T10:22:41.529Z,47.22
2023-03-28T10:24:02.374Z,47.10
2023-03-28T10:25:17.798Z,47.33
2023-03-28T10:26:28.048Z,46.81
2023-03-28T10:27:36.983Z,45.84
2023-03-28T10:28:44.646Z,45.93
2023-03-28T10:29:49.378Z,45.96
2023-03-28T10:30:58.157Z,45.73
2023-03-28T10:32:02.989Z,43.04
2023-03-28T10:33:27.121Z,42.85
2023-03-28T10:34:44.505Z,44.11
2023-03-28T10:36:12.898Z,44.11
2023-03-28T10:37:48.907Z,43.52
2023-03-28T10:38:53.691Z,43.49
2023-03-28T10:40:32.583Z,43.85
2023-03-28T10:41:38.308Z,43.68
2023-03-28T10:42:46.946Z,43.80
2023-03-28T10:43:51.805Z,44.65
2023-03-28T10:45:04.973Z,44.85
2023-03-28T10:46:33.444Z,44.96
2023-03-28T10:47:38.581Z,44.84
2023-03-28T10:48:52.068Z,44.64
2023-03-28T10:49:59.608Z,45.34
2023-03-28T10:51:10.716Z,45.00
2023-03-28T10:52:38.208Z,44.87
2023-03-28T10:54:20.678Z,44.79
2023-03-28T10:55:35.150Z,44.63
2023-03-28T10:56:58.777Z,44.67
2023-03-28T10:58:46.777Z,45.88
2023-03-28T11:00:12.861Z,46.18
2023-03-28T11:01:22.695Z,46.26
2023-03-28T11:03:26.313Z,46.81
2023-03-28T11:04:53.332Z,47.14
2023-03-28T11:06:25.669Z,46.25
2023-03-28T11:08:11.094Z,46.47
2023-03-28T11:09:47.270Z,46.22
2023-03-28T11:11:00.817Z,46.27
2023-03-28T11:12:28.552Z,46.33
2023-03-28T11:14:04.604Z,45.88
2023-03-28T11:15:33.531Z,46.18
2023-03-28T11:17:21.469Z,45.34
2023-03-28T11:19:01.439Z,44.74
2023-03-28T11:20:34.071Z,44.62
2023-03-28T11:22:03.681Z,45.06
2023-03-28T11:23:41.590Z,42.99
2023-03-28T11:25:37.086Z,43.32
2023-03-28T11:27:16.035Z,43.51
2023-03-28T11:29:12.421Z,43.62
2023-03-28T11:30:27.765Z,42.67
2023-03-28T11:32:00.470Z,41.54
2023-03-28T11:34:00.175Z,41.52
2023-03-28T11:35:40.173Z,40.81
2023-03-28T11:37:20.162Z,40.95
2023-03-28T11:38:41.663Z,41.44
2023-03-28T11:39:57.828Z,42.27
2023-03-28T11:41:14.114Z,43.80
2023-03-28T11:42:30.100Z,42.06
2023-03-28T11:44:10.615Z,40.50
2023-03-28T11:45:50.973Z,40.95
2023-03-28T11:47:21.942Z,41.47
2023-03-28T11:48:45.297Z,41.54
2023-03-28T11:49:53.510Z,41.44
2023-03-28T11:51:09.270Z,42.46
2023-03-28T11:52:48.439Z,42.96
2023-03-28T11:54:19.410Z,43.43
2023-03-28T11:55:29.568Z,42.86
2023-03-28T11:56:57.353Z,43.29
2023-03-28T11:58:13.879Z,44.43
2023-03-28T12:00:01.548Z,43.25
2023-03-28T12:01:23.243Z,41.72
2023-03-28T12:02:31.938Z,40.82
2023-03-28T12:03:57.309Z,40.23
2023-03-28T12:05:40.593Z,39.44
2023-03-28T12:07:15.525Z,37.68
2023-03-28T12:09:14.362Z,37.84
2023-03-28T12:10:41.324Z,37.99
2023-03-28T12:12:13.203Z,38.34
2023-03-28T12:14:11.410Z,38.14
2023-03-28T12:15:33.954Z,38.19
2023-03-28T12:16:48.868Z,37.99
2023-03-28T12:18:03.220Z,38.47
2023-03-28T12:19:18.673Z,38.30
2023-03-28T12:20:52.575Z,38.27
2023-03-28T12:22:20.425Z,37.73
2023-03-28T12:23:47.832Z,37.40
2023-03-28T12:25:25.086Z,36.51
2023-03-28T12:27:16.391Z,36.86
2023-03-28T12:28:32.302Z,37.47
2023-03-28T12:29:53.841Z,36.84
2023-03-28T12:31:14.993Z,37.12
2023-03-28T12:32:47.168Z,37.33
2023-03-28T12:36:29.348Z,36.46
2023-03-28T12:37:58.453Z,36.76
2023-03-28T12:39:16.590Z,37.12
2023-03-28T12:41:14.525Z,36.85
2023-03-28T12:42:27.113Z,37.56
2023-03-28T12:44:23.382Z,37.60
2023-03-28T12:45:44.256Z,38.05
2023-03-28T12:47:12.827Z,38.59
2023-03-28T12:48:45.729Z,39.50
2023-03-28T12:50:47.955Z,39.69
2023-03-28T12:51:59.883Z,39.89
2023-03-28T12:53:13.271Z,39.56
2023-03-28T12:54:17.299Z,39.11
2023-03-28T12:55:27.382Z,39.29
2023-03-28T12:56:32.040Z,39.49
2023-03-28T12:57:44.860Z,38.72
2023-03-28T12:58:52.946Z,39.10
2023-03-28T13:00:31.780Z,39.25
2023-03-28T13:01:52.007Z,39.58
2023-03-28T13:03:32.799Z,39.82
2023-03-28T13:04:52.553Z,40.87
2023-03-28T13:06:34.669Z,42.72
2023-03-28T13:08:18.910Z,43.97
2023-03-28T13:09:42.859Z,48.11
2023-03-28T13:11:17.546Z,52.01
2023-03-28T13:13:15.887Z,54.77
2023-03-28T13:14:43.266Z,59.42
2023-03-28T13:16:08.577Z,61.39
2023-03-28T13:17:27.497Z,63.50
2023-03-28T13:18:36.298Z,64.45
2023-03-28T13:20:21.852Z,65.24
2023-03-28T13:21:49.791Z,65.16
2023-03-28T13:23:03.348Z,64.70
2023-03-28T13:24:29.972Z,64.60
2023-03-28T13:25:39.087Z,65.11
2023-03-28T13:27:28.768Z,64.81
2023-03-28T13:28:51.826Z,63.81
2023-03-28T13:30:26.896Z,62.57
2023-03-28T13:31:33.540Z,62.37
2023-03-28T13:32:47.276Z,62.01
2023-03-28T13:34:02.155Z,62.61
2023-03-28T13:35:32.719Z,61.68
2023-03-28T13:36:37.577Z,60.58
2023-03-28T13:37:45.176Z,60.05
2023-03-28T13:39:26.746Z,59.02
2023-03-28T13:41:25.150Z,58.45
2023-03-28T13:42:37.108Z,58.25
2023-03-28T13:43:51.684Z,57.18
2023-03-28T13:45:21.442Z,56.60
2023-03-28T13:46:40.927Z,56.18
2023-03-28T13:47:46.549Z,55.83
2023-03-28T13:49:13.528Z,55.08
2023-03-28T13:50:31.942Z,55.13
2023-03-28T13:52:13.846Z,54.72
2023-03-28T13:53:18.844Z,53.62
2023-03-28T13:54:30.513Z,53.03
2023-03-28T13:55:36.246Z,53.13
2023-03-28T13:56:47.462Z,53.17
2023-03-28T13:58:02.816Z,55.06
2023-03-28T13:59:27.592Z,57.83
2023-03-28T14:00:32.804Z,66.19
2023-03-28T14:01:54.702Z,73.25
2023-03-28T14:03:14.943Z,76.88
2023-03-28T14:04:35.416Z,79.47
2023-03-28T14:05:45.767Z,81.90
2023-03-28T14:06:52.225Z,81.10
2023-03-28T14:08:14.315Z,84.01
2023-03-28T14:09:33.882Z,86.36
2023-03-28T14:10:43.500Z,87.59
2023-03-28T14:11:49.996Z,86.81
2023-03-28T14:13:20.061Z,85.43
2023-03-28T14:14:42.108Z,85.26
2023-03-28T14:15:56.589Z,83.82
2023-03-28T14:17:12.380Z,83.05
2023-03-28T14:18:36.341Z,81.55
2023-03-28T14:19:47.748Z,80.35
2023-03-28T14:20:56.978Z,79.10
2023-03-28T14:22:01.389Z,77.94
2023-03-28T14:23:33.466Z,76.94
2023-03-28T14:24:39.860Z,76.76
2023-03-28T14:25:44.258Z,76.53
2023-03-28T14:26:48.451Z,76.12
2023-03-28T14:27:58.494Z,75.13
2023-03-28T14:29:11.451Z,75.63
2023-03-28T14:30:55.098Z,73.73
2023-03-28T14:31:59.767Z,73.15
2023-03-28T14:33:14.638Z,72.04
2023-03-28T14:34:24.961Z,70.24
2023-03-28T14:35:35.691Z,69.01
2023-03-28T14:37:18.829Z,70.38
2023-03-28T14:38:34.804Z,67.65
2023-03-28T14:39:39.293Z,67.34
2023-03-28T14:40:45.932Z,67.39
2023-03-28T14:41:51.130Z,66.74
2023-03-28T14:43:13.560Z,65.68
2023-03-28T14:44:18.166Z,64.87
2023-03-28T14:45:27.101Z,65.13
2023-03-28T14:46:35.842Z,64.50
2023-03-28T14:49:13.864Z,62.49
2023-03-28T14:50:22.488Z,62.07
2023-03-28T14:51:28.560Z,62.10
2023-03-28T14:52:36.839Z,61.17
2023-03-28T14:53:47.799Z,61.49
2023-03-28T14:54:52.608Z,61.60
2023-03-28T14:56:11.949Z,60.49
2023-03-28T14:57:18.641Z,58.94
2023-03-28T14:58:24.405Z,58.44
2023-03-28T14:59:45.824Z,58.43
2023-03-28T15:00:56.138Z,58.15
2023-03-28T15:02:02.689Z,58.00
2023-03-28T15:03:16.662Z,58.77
2023-03-28T15:04:27.632Z,58.33
2023-03-28T15:05:38.233Z,58.34
2023-03-28T15:06:43.368Z,58.88
2023-03-28T15:08:00.495Z,58.16
2023-03-28T15:09:28.008Z,57.71
2023-03-28T15:10:33.877Z,56.74
2023-03-28T15:11:44.180Z,57.07
2023-03-28T15:13:04.472Z,57.45
2023-03-28T15:14:32.255Z,57.98
2023-03-28T15:15:46.247Z,58.36
2023-03-28T15:16:51.024Z,58.20
2023-03-28T15:18:01.500Z,58.40
2023-03-28T15:19:26.322Z,58.39
2023-03-28T15:20:37.004Z,59.16
2023-03-28T15:21:43.875Z,58.45
2023-03-28T15:22:59.626Z,58.66
2023-03-28T15:24:12.674Z,57.28
2023-03-28T15:25:19.408Z,56.44
2023-03-28T15:26:43.070Z,57.14
2023-03-28T15:27:56.790Z,56.69
2023-03-28T15:29:02.603Z,56.24
2023-03-28T15:30:22.028Z,56.06
2023-03-28T15:31:28.328Z,55.92
2023-03-28T15:32:34.306Z,56.06
2023-03-28T15:33:39.281Z,56.07
2023-03-28T15:34:48.130Z,55.99
2023-03-28T15:36:16.463Z,55.55
2023-03-28T15:37:25.949Z,55.43
2023-03-28T15:38:37.219Z,55.36
2023-03-28T15:39:42.199Z,55.45
2023-03-28T15:40:50.520Z,55.85
2023-03-28T15:42:23.496Z,55.79
2023-03-28T15:43:27.471Z,56.05
2023-03-28T15:44:36.139Z,56.72
2023-03-28T15:45:44.633Z,57.00
2023-03-28T15:46:49.808Z,57.78
2023-03-28T15:47:56.377Z,58.43
2023-03-28T15:49:03.456Z,60.73
2023-03-28T15:50:18.447Z,60.96
2023-03-28T15:51:22.574Z,61.93
2023-03-28T15:52:27.729Z,63.10
2023-03-28T15:53:32.361Z,63.13
2023-03-28T15:54:44.143Z,63.72
2023-03-28T15:55:52.131Z,63.61
2023-03-28T15:56:59.515Z,64.32
2023-03-28T15:58:07.100Z,65.69
2023-03-28T15:59:58.139Z,66.14
2023-03-28T16:01:38.928Z,65.39
2023-03-28T16:02:44.407Z,65.46
2023-03-28T16:03:50.953Z,65.68
2023-03-28T16:05:34.970Z,65.30
2023-03-28T16:06:44.116Z,65.44
2023-03-28T16:07:54.448Z,65.76
2023-03-28T16:09:24.423Z,65.61
2023-03-28T16:10:30.371Z,65.82
2023-03-28T16:11:34.563Z,65.15
2023-03-28T16:12:38.647Z,64.67
2023-03-28T16:13:43.041Z,64.65
2023-03-28T16:14:54.944Z,64.32
2023-03-28T16:15:59.303Z,64.06
2023-03-28T16:17:11.922Z,64.05
2023-03-28T16:18:16.109Z,64.16
2023-03-28T16:19:27.353Z,64.45
2023-03-28T16:20:31.840Z,63.51
2023-03-28T16:21:36.087Z,63.33
2023-03-28T16:22:52.515Z,62.32
2023-03-28T16:23:57.868Z,62.05
2023-03-28T16:25:02.551Z,62.10
2023-03-28T16:26:14.293Z,61.45
2023-03-28T16:27:19.843Z,61.16
2023-03-28T16:28:24.482Z,61.17
2023-03-28T16:29:28.791Z,61.10
2023-03-28T16:30:42.813Z,61.63
2023-03-28T16:31:47.155Z,61.92
2023-03-28T16:32:51.576Z,62.20
2023-03-28T16:33:55.620Z,62.24
2023-03-28T16:34:59.616Z,62.28
2023-03-28T16:36:04.437Z,62.77
2023-03-28T16:37:13.430Z,62.84
2023-03-28T16:38:18.409Z,62.74
2023-03-28T16:39:22.852Z,62.85
2023-03-28T16:40:28.637Z,62.45
2023-03-28T16:41:34.969Z,62.51
2023-03-28T16:42:43.003Z,62.37
2023-03-28T16:43:50.112Z,62.08
2023-03-28T16:44:55.940Z,61.76
2023-03-28T16:46:00.596Z,62.36
2023-03-28T16:47:11.335Z,62.25
2023-03-28T16:48:16.203Z,62.51
2023-03-28T16:49:20.224Z,62.31
2023-03-28T16:50:26.013Z,62.64
2023-03-28T16:51:31.810Z,62.50
2023-03-28T16:52:41.523Z,61.73
2023-03-28T16:53:46.428Z,61.88
2023-03-28T16:54:51.214Z,61.38
2023-03-28T16:55:55.671Z,61.32
2023-03-28T16:57:00.175Z,61.42
2023-03-28T16:58:05.131Z,61.32
2023-03-28T16:59:15.863Z,61.03
2023-03-28T17:00:21.403Z,60.94
2023-03-28T17:01:26.604Z,60.31
2023-03-28T17:02:31.434Z,58.95
2023-03-28T17:03:36.907Z,57.27
2023-03-28T17:04:41.675Z,56.87
2023-03-28T17:05:45.632Z,56.91
2023-03-28T17:06:49.598Z,56.11
2023-03-28T17:07:53.985Z,56.59
2023-03-28T17:08:59.014Z,56.02
2023-03-28T17:10:08.652Z,56.47
2023-03-28T17:11:13.934Z,56.77
2023-03-28T17:12:22.194Z,56.80
2023-03-28T17:13:28.117Z,56.80
2023-03-28T17:14:32.603Z,56.99
2023-03-28T17:15:37.604Z,56.71
2023-03-28T17:16:42.766Z,57.08
2023-03-28T17:17:47.399Z,57.05
2023-03-28T17:18:52.326Z,57.11
2023-03-28T17:19:57.374Z,56.66
2023-03-28T17:21:11.767Z,57.32
2023-03-28T17:22:16.830Z,57.05
2023-03-28T17:23:22.621Z,57.62
2023-03-28T17:24:27.345Z,58.28
2023-03-28T17:25:36.758Z,59.04
2023-03-28T17:26:45.988Z,59.62
2023-03-28T17:27:51.176Z,59.91
2023-03-28T17:28:58.834Z,60.73
2023-03-28T17:30:03.414Z,61.85
2023-03-28T17:31:22.224Z,63.47
2023-03-28T17:32:26.777Z,64.26
2023-03-28T17:33:31.495Z,65.13
2023-03-28T17:34:36.977Z,65.21
2023-03-28T17:35:41.486Z,64.69
2023-03-28T17:36:46.356Z,64.91
2023-03-28T17:37:53.272Z,64.91
2023-03-28T17:38:59.061Z,64.73
2023-03-28T17:40:03.794Z,64.51
2023-03-28T17:41:14.398Z,64.33
2023-03-28T17:42:20.413Z,64.05
2023-03-28T17:43:25.672Z,63.96
2023-03-28T17:44:30.130Z,64.15
2023-03-28T17:45:35.242Z,63.60
2023-03-28T17:46:40.732Z,63.88
2023-03-28T17:47:45.459Z,63.73
2023-03-28T17:48:51.553Z,63.21
2023-03-28T17:50:03.617Z,62.78
2023-03-28T17:51:13.644Z,62.72
2023-03-28T17:52:18.482Z,62.83
2023-03-28T17:53:23.930Z,62.97
2023-03-28T17:54:32.930Z,62.69
2023-03-28T17:55:37.733Z,62.87
2023-03-28T17:56:42.997Z,63.09
2023-03-28T17:57:47.636Z,62.92
2023-03-28T17:58:52.294Z,63.02
2023-03-28T17:59:57.082Z,62.96
2023-03-28T18:01:01.915Z,62.59
2023-03-28T18:02:06.980Z,62.33
2023-03-28T18:03:12.106Z,62.14
2023-03-28T18:04:18.439Z,61.87
2023-03-28T18:05:23.614Z,62.24
2023-03-28T18:06:28.255Z,61.26
2023-03-28T18:07:36.485Z,61.31
2023-03-28T18:08:45.435Z,61.01
2023-03-28T18:09:49.969Z,60.82
2023-03-28T18:10:55.011Z,60.59
2023-03-28T18:11:59.677Z,60.70
2023-03-28T18:13:05.447Z,61.12
2023-03-28T18:14:10.291Z,60.78
2023-03-28T18:15:15.115Z,60.51
2023-03-28T18:16:20.456Z,60.32
2023-03-28T18:17:25.580Z,60.38
2023-03-28T18:18:32.300Z,60.31
2023-03-28T18:19:37.940Z,60.38
2023-03-28T18:20:45.605Z,60.27
2023-03-28T18:21:51.163Z,60.28
2023-03-28T18:22:55.892Z,60.61
2023-03-28T18:24:00.253Z,59.93
2023-03-28T18:25:08.030Z,59.94
2023-03-28T18:26:12.614Z,59.70
2023-03-28T18:27:17.246Z,59.59
2023-03-28T18:28:23.702Z,59.54
2023-03-28T18:29:27.995Z,59.98
2023-03-28T18:30:32.827Z,60.12
2023-03-28T18:31:39.619Z,60.06
2023-03-28T18:32:44.056Z,60.27
2023-03-28T18:33:48.699Z,60.30
2023-03-28T18:34:52.821Z,60.80
2023-03-28T18:35:57.807Z,60.95
2023-03-28T18:37:04.454Z,61.39
2023-03-28T18:38:11.162Z,61.70
2023-03-28T18:39:19.167Z,60.38
2023-03-28T18:40:25.347Z,59.85
2023-03-28T18:41:29.561Z,59.98
2023-03-28T18:42:36.110Z,60.13
2023-03-28T18:43:42.924Z,60.17
2023-03-28T18:44:48.153Z,59.83
2023-03-28T18:45:56.734Z,59.33
2023-03-28T18:47:01.290Z,58.41
2023-03-28T18:48:08.433Z,58.70
2023-03-28T18:49:17.277Z,58.77
2023-03-28T18:50:25.205Z,58.96
2023-03-28T18:51:30.833Z,59.07
2023-03-28T18:52:36.627Z,58.82
2023-03-28T18:53:48.535Z,58.82
2023-03-28T18:54:53.680Z,58.33
2023-03-28T18:55:58.079Z,58.04
2023-03-28T18:57:04.401Z,57.35
2023-03-28T18:58:11.851Z,57.35
2023-03-28T18:59:18.048Z,56.97
2023-03-28T19:00:24.086Z,57.17
2023-03-28T19:01:34.733Z,56.67
2023-03-28T19:02:38.920Z,56.03
2023-03-28T19:03:43.911Z,56.47
2023-03-28T19:04:48.922Z,56.52
2023-03-28T19:06:02.868Z,55.97
2023-03-28T19:07:12.471Z,55.76
2023-03-28T19:08:17.713Z,55.60
2023-03-28T19:09:22.681Z,55.61
2023-03-28T19:10:28.302Z,55.67
2023-03-28T19:11:32.885Z,55.54
2023-03-28T19:12:37.730Z,55.76
2023-03-28T19:13:42.969Z,55.85
2023-03-28T19:14:48.585Z,55.78
2023-03-28T19:16:11.769Z,55.79
2023-03-28T19:17:16.129Z,55.26
2023-03-28T19:18:20.502Z,55.21
2023-03-28T19:19:25.920Z,55.28
2023-03-28T19:20:32.953Z,55.24
2023-03-28T19:21:38.206Z,55.56
2023-03-28T19:22:45.016Z,55.51
2023-03-28T19:23:50.998Z,55.45